Colburn, Indiana
Current Conditions -  °F | °C
As of 4:54 AM on Saturday 25 Oct 2014 (Local Time) from KLAF Reporting Station
Few Clouds Few Clouds  
Wind Chill: 55°   Ceiling: Unl
Heat Index: 55°   Visibility: 10mi
Dew Point: 51°   Wind: 6mph
Humidity: 86%   Direction: 230°SW
Pressure: 29.93"   Gusts: NA
Location:  40.4565°N, 86.7657°W
Report Text: KLAF 250854Z AUTO 23005KT 10SM FEW035 13/11 A2993 RMK AO2 SLP132 60000 T01280106 58016 TSNO
Loading
Personal Weather Stations






























Interactive Weather Map
Tropical Storm Tracking
New forecast layout! Learn more

10-Day Weather Forecast

Advertisements
Track Severe Weather on mobile